createdAt,value
2018-05-06T00:00:12.585Z,17.00
2018-05-06T00:02:40.017Z,17.00
2018-05-06T00:05:08.225Z,17.00
2018-05-06T00:07:35.662Z,17.00
2018-05-06T00:10:03.103Z,17.00
2018-05-06T00:12:31.315Z,17.00
2018-05-06T00:14:58.797Z,17.00
2018-05-06T00:17:26.227Z,17.00
2018-05-06T00:19:53.672Z,17.00
2018-05-06T00:22:21.108Z,17.00
2018-05-06T00:24:48.548Z,16.90
2018-05-06T00:27:16.751Z,16.80
2018-05-06T00:29:44.191Z,16.80
2018-05-06T00:32:12.393Z,16.70
2018-05-06T00:34:39.834Z,16.70
2018-05-06T00:37:07.444Z,16.60
2018-05-06T00:39:34.906Z,16.60
2018-05-06T00:42:02.341Z,16.60
2018-05-06T00:44:29.784Z,16.60
2018-05-06T00:46:57.244Z,16.60
2018-05-06T00:49:24.832Z,16.60
2018-05-06T00:51:52.282Z,16.60
2018-05-06T00:54:31.469Z,16.60
2018-05-06T00:56:58.909Z,16.60
2018-05-06T00:59:27.213Z,16.60
2018-05-06T01:01:54.644Z,16.60
2018-05-06T01:04:22.092Z,16.60
2018-05-06T01:06:50.314Z,16.60
2018-05-06T01:09:17.780Z,16.60
2018-05-06T01:11:45.261Z,16.60
2018-05-06T01:14:12.702Z,16.50
2018-05-06T01:16:40.912Z,16.50
2018-05-06T01:19:09.121Z,16.50
2018-05-06T01:21:36.605Z,16.50
2018-05-06T01:24:04.038Z,16.50
2018-05-06T01:26:31.494Z,16.50
2018-05-06T01:28:58.930Z,16.50
2018-05-06T01:31:26.368Z,16.40
2018-05-06T01:33:54.577Z,16.30
2018-05-06T01:36:22.026Z,16.30
2018-05-06T01:38:49.457Z,16.30
2018-05-06T01:41:17.765Z,16.20
2018-05-06T01:43:45.201Z,16.20
2018-05-06T01:46:12.637Z,16.20
2018-05-06T01:48:40.850Z,16.10
2018-05-06T01:51:08.280Z,16.10
2018-05-06T01:53:35.720Z,16.10
2018-05-06T01:56:03.945Z,16.10
2018-05-06T01:58:31.384Z,16.10
2018-05-06T02:00:58.824Z,16.10
2018-05-06T02:03:27.021Z,16.10
2018-05-06T02:05:54.470Z,16.10
2018-05-06T02:08:21.902Z,16.10
2018-05-06T02:10:50.119Z,16.10
2018-05-06T02:13:17.548Z,16.10
2018-05-06T02:15:44.988Z,16.10
2018-05-06T02:18:13.193Z,16.00
2018-05-06T02:20:40.632Z,16.00
2018-05-06T02:23:08.070Z,15.90
2018-05-06T02:25:36.272Z,15.90
2018-05-06T02:28:03.719Z,15.90
2018-05-06T02:30:31.151Z,15.90
2018-05-06T02:32:59.353Z,15.90
2018-05-06T02:35:26.790Z,15.90
2018-05-06T02:37:54.987Z,15.80
2018-05-06T02:40:22.436Z,15.80
2018-05-06T02:42:49.881Z,15.80
2018-05-06T02:45:18.082Z,15.70
2018-05-06T02:47:45.520Z,15.70
2018-05-06T02:50:12.951Z,15.70
2018-05-06T02:52:41.155Z,15.60
2018-05-06T02:55:08.586Z,15.50
2018-05-06T02:57:36.798Z,15.40
2018-05-06T03:00:04.245Z,15.40
2018-05-06T03:02:31.693Z,15.30
2018-05-06T03:04:59.121Z,15.20
2018-05-06T03:07:27.329Z,15.10
2018-05-06T03:09:54.764Z,15.10
2018-05-06T03:12:22.970Z,15.10
2018-05-06T03:14:50.412Z,15.00
2018-05-06T03:17:17.860Z,15.10
2018-05-06T03:19:45.296Z,15.10
2018-05-06T03:22:13.503Z,15.10
2018-05-06T03:24:40.981Z,15.10
2018-05-06T03:27:08.408Z,15.10
2018-05-06T03:29:35.855Z,15.10
2018-05-06T03:32:04.788Z,15.00
2018-05-06T03:34:32.240Z,15.00
2018-05-06T03:36:59.673Z,15.00
2018-05-06T03:39:27.112Z,14.90
2018-05-06T03:41:55.314Z,14.90
2018-05-06T03:44:22.757Z,14.90
2018-05-06T03:46:50.192Z,14.90
2018-05-06T03:49:18.400Z,14.80
2018-05-06T03:51:45.831Z,14.80
2018-05-06T03:54:13.280Z,14.80
2018-05-06T03:57:02.076Z,14.70
2018-05-06T03:59:42.337Z,14.70
2018-05-06T04:05:06.904Z,14.80
2018-05-06T04:07:35.111Z,14.80
2018-05-06T04:10:02.553Z,14.70
2018-05-06T04:12:29.991Z,14.80
2018-05-06T04:14:58.195Z,14.80
2018-05-06T04:17:25.640Z,14.80
2018-05-06T04:19:53.075Z,14.80
2018-05-06T04:22:21.281Z,14.90
2018-05-06T04:24:48.724Z,14.90
2018-05-06T04:27:16.159Z,14.90
2018-05-06T04:29:44.370Z,15.00
2018-05-06T04:32:11.812Z,14.90
2018-05-06T04:34:39.263Z,15.00
2018-05-06T04:37:06.689Z,14.90
2018-05-06T04:39:34.129Z,15.00
2018-05-06T04:42:01.568Z,15.00
2018-05-06T04:44:29.001Z,15.00
2018-05-06T04:46:56.431Z,15.00
2018-05-06T04:49:23.888Z,15.10
2018-05-06T04:51:52.096Z,15.10
2018-05-06T04:54:19.529Z,15.10
2018-05-06T04:56:47.132Z,15.10
2018-05-06T04:59:14.576Z,15.20
2018-05-06T05:01:42.005Z,15.20
2018-05-06T05:04:09.456Z,15.20
2018-05-06T05:06:36.897Z,15.20
2018-05-06T05:09:05.108Z,15.20
2018-05-06T05:11:32.540Z,15.20
2018-05-06T05:13:59.984Z,15.30
2018-05-06T05:16:28.212Z,15.40
2018-05-06T05:18:55.649Z,15.40
2018-05-06T05:21:23.089Z,15.40
2018-05-06T05:23:50.530Z,15.50
2018-05-06T05:26:18.739Z,15.50
2018-05-06T05:28:46.217Z,15.50
2018-05-06T05:31:13.622Z,15.60
2018-05-06T05:33:41.059Z,15.60
2018-05-06T05:36:09.281Z,15.70
2018-05-06T05:38:36.713Z,15.70
2018-05-06T05:41:04.161Z,15.80
2018-05-06T05:43:31.600Z,15.90
2018-05-06T05:45:59.809Z,16.00
2018-05-06T05:48:27.241Z,16.00
2018-05-06T05:50:55.453Z,16.20
2018-05-06T05:53:22.892Z,16.20
2018-05-06T05:55:50.332Z,16.20
2018-05-06T05:58:17.763Z,16.30
2018-05-06T06:00:45.209Z,16.40
2018-05-06T06:03:12.649Z,16.50
2018-05-06T06:05:40.084Z,16.60
2018-05-06T06:08:07.524Z,16.60
2018-05-06T06:10:34.960Z,16.60
2018-05-06T06:13:03.161Z,16.80
2018-05-06T06:15:30.627Z,16.80
2018-05-06T06:17:58.797Z,16.90
2018-05-06T06:20:26.244Z,17.00
2018-05-06T06:22:53.672Z,17.00
2018-05-06T06:25:21.896Z,17.10
2018-05-06T06:27:49.358Z,17.10
2018-05-06T06:30:16.792Z,17.10
2018-05-06T06:32:44.229Z,17.20
2018-05-06T06:35:11.684Z,17.30
2018-05-06T06:37:39.891Z,17.20
2018-05-06T06:40:07.323Z,17.20
2018-05-06T06:42:34.758Z,17.30
2018-05-06T06:45:02.962Z,17.50
2018-05-06T06:47:30.392Z,17.50
2018-05-06T06:49:58.588Z,17.70
2018-05-06T06:52:26.033Z,17.70
2018-05-06T06:54:54.241Z,17.90
2018-05-06T06:57:21.686Z,17.90
2018-05-06T06:59:49.111Z,18.00
2018-05-06T07:02:17.317Z,18.20
2018-05-06T07:04:44.764Z,18.10
2018-05-06T07:07:12.196Z,18.20
2018-05-06T07:09:40.400Z,18.20
2018-05-06T07:12:07.836Z,18.20
2018-05-06T07:14:35.269Z,18.30
2018-05-06T07:17:03.481Z,18.40
2018-05-06T07:19:30.915Z,18.40
2018-05-06T07:21:59.117Z,18.50
2018-05-06T07:24:26.548Z,18.50
2018-05-06T07:26:53.988Z,18.50
2018-05-06T07:29:22.188Z,18.60
2018-05-06T07:31:49.624Z,18.60
2018-05-06T07:34:17.839Z,18.70
2018-05-06T07:36:45.265Z,18.70
2018-05-06T07:39:12.698Z,18.80
2018-05-06T07:41:40.142Z,18.90
2018-05-06T07:44:07.569Z,19.00
2018-05-06T07:46:35.784Z,19.10
2018-05-06T07:49:04.016Z,19.10
2018-05-06T07:51:44.368Z,19.10
2018-05-06T07:54:11.800Z,19.30
2018-05-06T07:56:39.336Z,19.40
2018-05-06T07:59:07.532Z,19.60
2018-05-06T08:01:34.971Z,19.60
2018-05-06T08:04:03.173Z,19.80
2018-05-06T08:06:30.604Z,19.80
2018-05-06T08:08:58.808Z,20.00
2018-05-06T08:11:26.245Z,20.00
2018-05-06T08:13:53.689Z,20.00
2018-05-06T08:16:21.912Z,20.20
2018-05-06T08:18:49.329Z,20.20
2018-05-06T08:21:16.773Z,20.30
2018-05-06T08:23:44.196Z,20.40
2018-05-06T08:26:11.628Z,20.40
2018-05-06T08:28:39.064Z,20.50
2018-05-06T08:31:06.505Z,20.50
2018-05-06T08:33:34.721Z,20.50
2018-05-06T08:36:02.157Z,20.50
2018-05-06T08:38:29.601Z,20.50
2018-05-06T08:40:57.039Z,20.60
2018-05-06T08:43:25.248Z,20.80
2018-05-06T08:45:52.752Z,20.80
2018-05-06T08:48:20.880Z,21.00
2018-05-06T08:50:48.312Z,20.90
2018-05-06T08:53:15.761Z,21.00
2018-05-06T08:55:43.986Z,21.10
2018-05-06T08:58:11.421Z,21.10
2018-05-06T09:00:38.856Z,21.20
2018-05-06T09:03:06.305Z,21.30
2018-05-06T09:05:34.509Z,21.50
2018-05-06T09:08:01.941Z,21.50
2018-05-06T09:10:29.390Z,21.60
2018-05-06T09:12:57.588Z,21.80
2018-05-06T09:15:25.037Z,21.80
2018-05-06T09:17:52.468Z,21.80
2018-05-06T09:20:20.685Z,21.90
2018-05-06T09:22:48.116Z,21.90
2018-05-06T09:25:16.326Z,21.80
2018-05-06T09:27:43.752Z,21.80
2018-05-06T09:30:11.201Z,21.70
2018-05-06T09:32:38.627Z,21.70
2018-05-06T09:35:06.064Z,21.60
2018-05-06T09:37:33.505Z,21.70
2018-05-06T09:40:00.941Z,21.80
2018-05-06T09:42:28.367Z,21.80
2018-05-06T09:44:56.588Z,22.00
2018-05-06T09:47:24.021Z,22.00
2018-05-06T09:49:51.459Z,22.00
2018-05-06T09:52:19.662Z,22.10
2018-05-06T09:54:47.111Z,22.10
2018-05-06T09:57:14.532Z,22.20
2018-05-06T09:59:42.736Z,22.40
2018-05-06T10:02:10.167Z,22.40
2018-05-06T10:04:38.368Z,22.50
2018-05-06T10:07:05.803Z,22.50
2018-05-06T10:09:34.050Z,22.40
2018-05-06T10:12:01.469Z,22.40
2018-05-06T10:14:28.900Z,22.50
2018-05-06T10:16:56.336Z,22.50
2018-05-06T10:19:24.532Z,22.70
2018-05-06T10:21:51.967Z,22.70
2018-05-06T10:24:20.169Z,22.90
2018-05-06T10:26:47.601Z,22.90
2018-05-06T10:29:15.796Z,23.10
2018-05-06T10:31:43.233Z,23.10
2018-05-06T10:34:11.428Z,23.40
2018-05-06T10:36:39.649Z,23.40
2018-05-06T10:39:07.076Z,23.70
2018-05-06T10:41:34.515Z,24.20
2018-05-06T10:44:01.949Z,25.00
2018-05-06T10:46:30.155Z,26.80
2018-05-06T10:48:57.592Z,26.80
2018-05-06T10:51:25.020Z,27.80
2018-05-06T10:53:53.216Z,29.40
2018-05-06T10:56:20.657Z,29.30
2018-05-06T10:58:48.872Z,30.10
2018-05-06T11:01:16.312Z,30.00
2018-05-06T11:03:43.741Z,30.30
2018-05-06T11:06:11.948Z,30.70
2018-05-06T11:08:39.381Z,30.60
2018-05-06T11:11:06.836Z,30.80
2018-05-06T11:13:35.041Z,31.60
2018-05-06T11:16:02.541Z,31.50
2018-05-06T11:18:30.679Z,32.00
2018-05-06T11:20:58.112Z,32.00
2018-05-06T11:23:25.549Z,32.20
2018-05-06T11:25:53.748Z,32.60
2018-05-06T11:28:21.192Z,32.60
2018-05-06T11:30:48.626Z,33.10
2018-05-06T11:33:16.076Z,33.40
2018-05-06T11:35:43.500Z,33.60
2018-05-06T11:38:10.992Z,33.60
2018-05-06T11:40:38.422Z,33.40
2018-05-06T11:43:05.861Z,33.00
2018-05-06T11:45:33.296Z,32.50
2018-05-06T11:48:00.732Z,32.00
2018-05-06T11:50:28.924Z,30.70
2018-05-06T11:52:56.364Z,30.60
2018-05-06T11:55:24.560Z,29.80
2018-05-06T11:57:51.997Z,29.80
2018-05-06T12:00:19.428Z,29.70
2018-05-06T12:02:46.869Z,29.80
2018-05-06T12:05:14.292Z,29.90
2018-05-06T12:07:41.728Z,30.10
2018-05-06T12:10:09.156Z,29.80
2018-05-06T12:12:37.368Z,29.10
2018-05-06T12:15:04.805Z,29.00
2018-05-06T12:17:33.012Z,27.90
2018-05-06T12:20:00.444Z,27.80
2018-05-06T12:22:27.872Z,27.30
2018-05-06T12:24:56.075Z,26.60
2018-05-06T12:27:23.957Z,26.60
2018-05-06T12:29:51.385Z,26.20
2018-05-06T12:32:19.575Z,25.70
2018-05-06T12:34:47.010Z,25.60
2018-05-06T12:37:15.209Z,25.40
2018-05-06T12:39:42.654Z,25.30
2018-05-06T12:42:10.849Z,25.20
2018-05-06T12:44:38.297Z,25.10
2018-05-06T12:47:05.733Z,25.10
2018-05-06T12:49:34.015Z,25.00
2018-05-06T12:52:01.368Z,24.90
2018-05-06T12:54:28.877Z,24.90
2018-05-06T12:56:57.010Z,24.80
2018-05-06T12:59:24.440Z,24.80
2018-05-06T13:01:52.636Z,24.80
2018-05-06T13:04:20.073Z,24.80
2018-05-06T13:06:48.273Z,24.80
2018-05-06T13:09:15.708Z,24.70
2018-05-06T13:11:43.150Z,24.80
2018-05-06T13:14:11.351Z,24.70
2018-05-06T13:16:38.785Z,24.70
2018-05-06T13:19:06.984Z,24.70
2018-05-06T13:21:34.420Z,24.70
2018-05-06T13:24:02.640Z,24.90
2018-05-06T13:26:30.061Z,24.80
2018-05-06T13:28:57.500Z,24.90
2018-05-06T13:31:25.705Z,24.90
2018-05-06T13:33:53.132Z,24.90
2018-05-06T13:36:21.353Z,25.00
2018-05-06T13:38:48.794Z,25.00
2018-05-06T13:41:16.233Z,25.10
2018-05-06T13:43:43.667Z,25.10
2018-05-06T13:46:11.872Z,25.20
2018-05-06T13:48:39.304Z,25.20
2018-05-06T13:51:07.532Z,25.40
2018-05-06T13:53:34.973Z,25.40
2018-05-06T13:56:02.408Z,25.40
2018-05-06T13:58:35.651Z,25.40
2018-05-06T14:01:03.088Z,25.40
2018-05-06T14:03:30.519Z,25.40
2018-05-06T14:05:57.960Z,25.50
2018-05-06T14:08:25.391Z,25.60
2018-05-06T14:10:52.844Z,25.70
2018-05-06T14:13:20.363Z,25.80
2018-05-06T14:15:47.771Z,25.80
2018-05-06T14:18:15.153Z,25.80
2018-05-06T14:20:42.593Z,25.80
2018-05-06T14:23:10.028Z,25.90
2018-05-06T14:25:37.468Z,25.90
2018-05-06T14:28:04.903Z,26.10
2018-05-06T14:30:33.119Z,26.30
2018-05-06T14:33:00.551Z,26.30
2018-05-06T14:35:27.992Z,26.40
2018-05-06T14:37:55.420Z,26.60
2018-05-06T14:40:22.861Z,26.90
2018-05-06T14:42:51.064Z,28.30
2018-05-06T14:45:18.497Z,28.30
2018-05-06T14:47:57.723Z,29.20
2018-05-06T14:50:25.919Z,31.00
2018-05-06T14:52:53.350Z,30.90
2018-05-06T14:55:21.550Z,33.70
2018-05-06T14:57:49.008Z,33.60
2018-05-06T15:00:16.441Z,35.30
2018-05-06T15:02:43.882Z,37.00
2018-05-06T15:05:12.099Z,39.80
2018-05-06T15:07:39.540Z,39.70
2018-05-06T15:10:06.976Z,40.80
2018-05-06T15:12:35.184Z,42.60
2018-05-06T15:15:02.613Z,42.50
2018-05-06T15:17:30.055Z,42.90
2018-05-06T15:19:58.372Z,43.90
2018-05-06T15:22:25.804Z,43.90
2018-05-06T15:24:53.236Z,44.40
2018-05-06T15:27:21.441Z,45.20
2018-05-06T15:29:48.872Z,45.10
2018-05-06T15:32:17.077Z,45.90
2018-05-06T15:34:44.508Z,45.90
2018-05-06T15:37:12.717Z,46.20
2018-05-06T15:39:40.157Z,46.20
2018-05-06T15:42:07.628Z,46.20
2018-05-06T15:44:35.057Z,46.00
2018-05-06T15:47:02.495Z,45.90
2018-05-06T15:49:29.933Z,46.10
2018-05-06T15:51:57.373Z,45.90
2018-05-06T15:54:24.818Z,45.60
2018-05-06T15:56:52.258Z,45.80
2018-05-06T15:59:19.699Z,45.80
2018-05-06T16:01:59.025Z,45.40
2018-05-06T16:04:27.249Z,44.00
2018-05-06T16:06:54.684Z,43.90
2018-05-06T16:09:22.125Z,42.30
2018-05-06T16:11:49.561Z,40.20
2018-05-06T16:14:17.761Z,36.60
2018-05-06T16:16:45.192Z,36.50
2018-05-06T16:19:13.401Z,33.90
2018-05-06T16:21:40.830Z,33.80
2018-05-06T16:24:08.288Z,32.80
2018-05-06T16:26:35.811Z,31.80
2018-05-06T16:29:03.933Z,30.30
2018-05-06T16:31:31.365Z,30.20
2018-05-06T16:33:59.571Z,29.20
2018-05-06T16:36:27.009Z,29.10
2018-05-06T16:38:54.448Z,28.70
2018-05-06T16:41:22.644Z,28.10
2018-05-06T16:43:50.084Z,28.00
2018-05-06T16:46:18.279Z,27.40
2018-05-06T16:48:45.716Z,27.40
2018-05-06T16:51:13.913Z,27.00
2018-05-06T16:53:41.358Z,26.90
2018-05-06T16:56:08.788Z,26.70
2018-05-06T16:58:36.989Z,26.40
2018-05-06T17:01:04.428Z,26.30
2018-05-06T17:03:32.621Z,26.10
2018-05-06T17:06:00.056Z,26.10
2018-05-06T17:08:28.257Z,25.80
2018-05-06T17:10:55.697Z,25.80
2018-05-06T17:13:23.124Z,25.60
2018-05-06T17:15:50.560Z,25.50
2018-05-06T17:18:19.504Z,25.40
2018-05-06T17:20:46.940Z,25.40
2018-05-06T17:23:15.140Z,25.20
2018-05-06T17:25:42.581Z,25.20
2018-05-06T17:28:10.776Z,25.00
2018-05-06T17:30:38.218Z,24.90
2018-05-06T17:33:05.661Z,24.90
2018-05-06T17:35:33.866Z,24.70
2018-05-06T17:38:01.296Z,24.60
2018-05-06T17:40:29.517Z,24.60
2018-05-06T17:42:56.948Z,24.50
2018-05-06T17:45:24.389Z,24.40
2018-05-06T17:47:51.820Z,24.30
2018-05-06T17:50:20.040Z,24.20
2018-05-06T17:52:47.476Z,24.20
2018-05-06T17:55:14.908Z,24.10
2018-05-06T17:57:43.113Z,23.90
2018-05-06T18:00:10.548Z,23.90
2018-05-06T18:02:38.756Z,23.80
2018-05-06T18:05:06.188Z,23.80
2018-05-06T18:07:33.664Z,23.70
2018-05-06T18:10:01.835Z,23.60
2018-05-06T18:12:29.284Z,23.60
2018-05-06T18:14:56.712Z,23.50
2018-05-06T18:17:24.921Z,23.40
2018-05-06T18:19:52.358Z,23.40
2018-05-06T18:22:20.608Z,23.30
2018-05-06T18:24:48.040Z,23.20
2018-05-06T18:27:15.485Z,23.20
2018-05-06T18:29:42.921Z,23.10
2018-05-06T18:32:10.402Z,23.00
2018-05-06T18:34:37.793Z,22.90
2018-05-06T18:37:06.013Z,22.80
2018-05-06T18:39:33.448Z,22.80
2018-05-06T18:42:00.896Z,22.70
2018-05-06T18:44:29.091Z,22.60
2018-05-06T18:46:56.623Z,22.60
2018-05-06T18:49:23.969Z,22.60
2018-05-06T18:51:52.179Z,22.40
2018-05-06T18:54:19.608Z,22.40
2018-05-06T18:56:47.816Z,22.30
2018-05-06T18:59:15.260Z,22.20
2018-05-06T19:01:42.700Z,22.20
2018-05-06T19:04:10.900Z,22.10
2018-05-06T19:06:38.337Z,22.10
2018-05-06T19:09:05.763Z,22.00
2018-05-06T19:11:33.196Z,21.90
2018-05-06T19:14:00.641Z,21.90
2018-05-06T19:16:28.069Z,21.80
2018-05-06T19:18:55.516Z,21.80
2018-05-06T19:21:22.956Z,21.70
2018-05-06T19:23:51.177Z,21.60
2018-05-06T19:26:18.614Z,21.60
2018-05-06T19:28:46.053Z,21.50
2018-05-06T19:31:13.485Z,21.50
2018-05-06T19:33:40.940Z,21.40
2018-05-06T19:36:08.368Z,21.30
2018-05-06T19:38:35.808Z,21.20
2018-05-06T19:41:03.236Z,21.10
2018-05-06T19:43:30.672Z,21.00
2018-05-06T19:45:58.869Z,20.80
2018-05-06T19:48:26.313Z,20.80
2018-05-06T19:50:54.507Z,20.50
2018-05-06T19:53:21.963Z,20.50
2018-05-06T19:55:49.395Z,20.40
2018-05-06T19:58:17.609Z,20.20
2018-05-06T20:00:45.044Z,20.10
2018-05-06T20:03:12.485Z,20.10
2018-05-06T20:05:40.680Z,19.90
2018-05-06T20:08:08.124Z,19.90
2018-05-06T20:10:35.552Z,19.90
2018-05-06T20:13:02.993Z,19.80
2018-05-06T20:15:30.431Z,19.70
2018-05-06T20:17:57.873Z,19.60
2018-05-06T20:20:25.304Z,19.60
2018-05-06T20:22:52.739Z,19.50
2018-05-06T20:25:20.940Z,19.30
2018-05-06T20:27:48.378Z,19.30
2018-05-06T20:30:16.584Z,19.10
2018-05-06T20:32:44.016Z,19.10
2018-05-06T20:35:12.221Z,18.90
2018-05-06T20:37:39.696Z,18.90
2018-05-06T20:40:07.127Z,18.90
2018-05-06T20:42:34.565Z,18.80
2018-05-06T20:45:02.765Z,18.60
2018-05-06T20:47:30.195Z,18.60
2018-05-06T20:49:57.637Z,18.50
2018-05-06T20:52:25.841Z,18.40
2018-05-06T20:54:53.284Z,18.40
2018-05-06T20:57:20.716Z,18.40
2018-05-06T20:59:48.920Z,18.30
2018-05-06T21:02:16.356Z,18.30
2018-05-06T21:04:44.563Z,18.10
2018-05-06T21:07:11.997Z,18.10
2018-05-06T21:09:39.437Z,18.00
2018-05-06T21:12:07.628Z,17.80
2018-05-06T21:14:35.065Z,17.70
2018-05-06T21:17:03.282Z,17.70
2018-05-06T21:19:30.721Z,17.60
2018-05-06T21:21:58.147Z,17.60
2018-05-06T21:24:26.360Z,17.50
2018-05-06T21:26:53.780Z,17.50
2018-05-06T21:29:21.984Z,17.40
2018-05-06T21:31:49.425Z,17.40
2018-05-06T21:34:17.633Z,17.30
2018-05-06T21:36:45.128Z,17.30
2018-05-06T21:39:12.577Z,17.20
2018-05-06T21:41:40.696Z,17.10
2018-05-06T21:44:08.140Z,17.00
2018-05-06T21:46:35.568Z,17.00
2018-05-06T21:49:03.003Z,17.00
2018-05-06T21:51:30.441Z,17.00
2018-05-06T21:53:57.872Z,17.00
2018-05-06T21:56:25.307Z,17.00
2018-05-06T21:58:53.504Z,16.90
2018-05-06T22:01:20.951Z,16.90
2018-05-06T22:03:48.388Z,16.80
2018-05-06T22:06:17.264Z,16.70
2018-05-06T22:08:44.694Z,16.70
2018-05-06T22:11:12.128Z,16.70
2018-05-06T22:13:39.626Z,16.70
2018-05-06T22:16:07.769Z,16.50
2018-05-06T22:18:35.196Z,16.50
2018-05-06T22:21:02.657Z,16.50
2018-05-06T22:23:30.086Z,16.40
2018-05-06T22:25:58.288Z,16.40
2018-05-06T22:28:25.720Z,16.30
2018-05-06T22:30:53.930Z,16.30
2018-05-06T22:33:21.364Z,16.30
2018-05-06T22:35:49.565Z,16.20
2018-05-06T22:38:17.001Z,16.20
2018-05-06T22:40:44.444Z,16.20
2018-05-06T22:43:12.646Z,16.20
2018-05-06T22:45:40.088Z,16.20
2018-05-06T22:48:07.517Z,16.10
2018-05-06T22:50:35.736Z,16.10
2018-05-06T22:53:03.165Z,16.10
2018-05-06T22:55:31.368Z,16.00
2018-05-06T22:57:58.805Z,16.00
2018-05-06T23:00:26.243Z,16.00
2018-05-06T23:02:54.449Z,15.90
2018-05-06T23:05:21.888Z,15.90
2018-05-06T23:07:49.320Z,15.80
2018-05-06T23:10:17.525Z,15.70
2018-05-06T23:12:44.956Z,15.60
2018-05-06T23:15:13.172Z,15.50
2018-05-06T23:17:40.605Z,15.50
2018-05-06T23:20:08.047Z,15.50
2018-05-06T23:22:36.237Z,15.50
2018-05-06T23:25:03.683Z,15.50
2018-05-06T23:27:31.872Z,15.50
2018-05-06T23:29:59.316Z,15.50
2018-05-06T23:32:26.747Z,15.40
2018-05-06T23:34:54.948Z,15.40
2018-05-06T23:37:22.388Z,15.40
2018-05-06T23:39:50.584Z,15.40
2018-05-06T23:42:18.033Z,15.40
2018-05-06T23:44:45.460Z,15.40
2018-05-06T23:47:12.905Z,15.40
2018-05-06T23:49:40.422Z,15.40
2018-05-06T23:52:07.781Z,15.30
2018-05-06T23:54:35.214Z,15.30
2018-05-06T23:57:02.654Z,15.30
2018-05-06T23:59:30.859Z,15.20
